sensor_id;sensor_type;location;lat;lon;timestamp;pressure;altitude;pressure_sealevel;temperature;humidity
18323;BME280;9287;49.456;11.064;2023-11-19T00:00:11;98180.16;;;5.06;100.00
18323;BME280;9287;49.456;11.064;2023-11-19T00:02:40;98175.72;;;5.10;100.00
18323;BME280;9287;49.456;11.064;2023-11-19T00:05:09;98183.09;;;5.18;100.00
18323;BME280;9287;49.456;11.064;2023-11-19T00:07:40;98171.16;;;5.19;100.00
18323;BME280;9287;49.456;11.064;2023-11-19T00:10:11;98166.69;;;5.14;100.00
18323;BME280;9287;49.456;11.064;2023-11-19T00:12:41;98150.88;;;5.08;100.00
18323;BME280;9287;49.456;11.064;2023-11-19T00:15:11;98147.69;;;5.06;100.00
18323;BME280;9287;49.456;11.064;2023-11-19T00:17:39;98155.06;;;5.14;100.00
18323;BME280;9287;49.456;11.064;2023-11-19T00:20:12;98166.78;;;5.01;100.00
18323;BME280;9287;49.456;11.064;2023-11-19T00:22:40;98173.16;;;5.05;100.00
18323;BME280;9287;49.456;11.064;2023-11-19T00:25:12;98171.63;;;5.21;100.00
18323;BME280;9287;49.456;11.064;2023-11-19T00:27:40;98161.44;;;5.18;100.00
18323;BME280;9287;49.456;11.064;2023-11-19T00:30:13;98154.44;;;5.17;100.00
18323;BME280;9287;49.456;11.064;2023-11-19T00:32:42;98149.03;;;5.17;100.00
18323;BME280;9287;49.456;11.064;2023-11-19T00:35:11;98147.75;;;5.23;100.00
18323;BME280;9287;49.456;11.064;2023-11-19T00:37:42;98152.91;;;5.33;100.00
18323;BME280;9287;49.456;11.064;2023-11-19T00:40:13;98143.00;;;5.37;100.00
18323;BME280;9287;49.456;11.064;2023-11-19T00:42:43;98130.75;;;5.31;100.00
18323;BME280;9287;49.456;11.064;2023-11-19T00:45:13;98128.31;;;5.21;100.00
18323;BME280;9287;49.456;11.064;2023-11-19T00:47:41;98123.25;;;5.28;100.00
18323;BME280;9287;49.456;11.064;2023-11-19T00:50:10;98119.91;;;5.31;100.00
18323;BME280;9287;49.456;11.064;2023-11-19T00:52:39;98118.81;;;5.32;100.00
18323;BME280;9287;49.456;11.064;2023-11-19T00:55:08;98113.41;;;5.32;100.00
18323;BME280;9287;49.456;11.064;2023-11-19T00:57:36;98118.31;;;5.39;100.00
18323;BME280;9287;49.456;11.064;2023-11-19T01:00:05;98101.59;;;5.28;100.00
18323;BME280;9287;49.456;11.064;2023-11-19T01:02:46;98097.28;;;5.27;100.00
18323;BME280;9287;49.456;11.064;2023-11-19T01:05:18;98099.84;;;5.32;100.00
18323;BME280;9287;49.456;11.064;2023-11-19T01:07:48;98090.13;;;5.31;100.00
18323;BME280;9287;49.456;11.064;2023-11-19T01:10:16;98103.19;;;5.29;100.00
18323;BME280;9287;49.456;11.064;2023-11-19T01:12:45;98107.63;;;5.25;100.00
18323;BME280;9287;49.456;11.064;2023-11-19T01:15:15;98110.50;;;5.37;100.00
18323;BME280;9287;49.456;11.064;2023-11-19T01:17:46;98115.94;;;5.37;100.00
18323;BME280;9287;49.456;11.064;2023-11-19T01:20:17;98125.03;;;5.41;100.00
18323;BME280;9287;49.456;11.064;2023-11-19T01:22:46;98119.63;;;5.41;100.00
18323;BME280;9287;49.456;11.064;2023-11-19T01:25:16;98110.88;;;5.44;100.00
18323;BME280;9287;49.456;11.064;2023-11-19T01:27:44;98107.84;;;5.54;100.00
18323;BME280;9287;49.456;11.064;2023-11-19T01:30:12;98104.81;;;5.47;100.00
18323;BME280;9287;49.456;11.064;2023-11-19T01:32:42;98101.81;;;5.57;100.00
18323;BME280;9287;49.456;11.064;2023-11-19T01:35:11;98094.31;;;5.54;100.00
18323;BME280;9287;49.456;11.064;2023-11-19T01:37:39;98087.59;;;5.43;100.00
18323;BME280;9287;49.456;11.064;2023-11-19T01:40:08;98097.31;;;5.44;100.00
18323;BME280;9287;49.456;11.064;2023-11-19T01:42:38;98089.19;;;5.44;100.00
18323;BME280;9287;49.456;11.064;2023-11-19T01:45:07;98088.41;;;5.44;100.00
18323;BME280;9287;49.456;11.064;2023-11-19T01:47:36;98078.38;;;5.44;100.00
18323;BME280;9287;49.456;11.064;2023-11-19T01:50:06;98076.78;;;5.43;100.00
18323;BME280;9287;49.456;11.064;2023-11-19T01:52:37;98063.72;;;5.45;100.00
18323;BME280;9287;49.456;11.064;2023-11-19T01:55:08;98052.25;;;5.48;100.00
18323;BME280;9287;49.456;11.064;2023-11-19T01:57:37;98043.00;;;5.49;100.00
18323;BME280;9287;49.456;11.064;2023-11-19T02:00:07;98029.78;;;5.48;100.00
18323;BME280;9287;49.456;11.064;2023-11-19T02:02:39;98025.47;;;5.55;100.00
18323;BME280;9287;49.456;11.064;2023-11-19T02:05:08;98016.22;;;5.56;100.00
18323;BME280;9287;49.456;11.064;2023-11-19T02:07:37;98026.13;;;5.52;100.00
18323;BME280;9287;49.456;11.064;2023-11-19T02:10:06;98032.34;;;5.53;100.00
18323;BME280;9287;49.456;11.064;2023-11-19T02:12:40;98025.03;;;5.53;100.00
18323;BME280;9287;49.456;11.064;2023-11-19T02:15:10;98019.75;;;5.57;100.00
18323;BME280;9287;49.456;11.064;2023-11-19T02:17:38;98022.16;;;5.67;100.00
18323;BME280;9287;49.456;11.064;2023-11-19T02:20:08;98023.75;;;5.68;100.00
18323;BME280;9287;49.456;11.064;2023-11-19T02:22:39;98025.34;;;5.69;100.00
18323;BME280;9287;49.456;11.064;2023-11-19T02:25:12;98023.13;;;5.71;100.00
18323;BME280;9287;49.456;11.064;2023-11-19T02:27:50;98035.03;;;5.79;100.00
18323;BME280;9287;49.456;11.064;2023-11-19T02:30:18;98023.41;;;5.61;100.00
18323;BME280;9287;49.456;11.064;2023-11-19T02:32:47;98020.38;;;5.63;100.00
18323;BME280;9287;49.456;11.064;2023-11-19T02:35:16;98024.84;;;5.58;100.00
18323;BME280;9287;49.456;11.064;2023-11-19T02:37:43;98020.38;;;5.63;100.00
18323;BME280;9287;49.456;11.064;2023-11-19T02:40:13;98023.09;;;5.63;100.00
18323;BME280;9287;49.456;11.064;2023-11-19T02:42:41;98020.06;;;5.73;100.00
18323;BME280;9287;49.456;11.064;2023-11-19T02:45:10;98031.38;;;5.75;100.00
18323;BME280;9287;49.456;11.064;2023-11-19T02:47:41;98023.88;;;5.80;100.00
18323;BME280;9287;49.456;11.064;2023-11-19T02:50:10;98028.50;;;5.80;100.00
18323;BME280;9287;49.456;11.064;2023-11-19T02:52:40;98026.28;;;5.73;100.00
18323;BME280;9287;49.456;11.064;2023-11-19T02:55:09;98015.75;;;5.80;100.00
18323;BME280;9287;49.456;11.064;2023-11-19T02:57:40;98014.97;;;5.80;100.00
18323;BME280;9287;49.456;11.064;2023-11-19T03:00:14;98013.22;;;5.84;100.00
18323;BME280;9287;49.456;11.064;2023-11-19T03:02:43;98005.09;;;5.84;100.00
18323;BME280;9287;49.456;11.064;2023-11-19T03:05:13;98002.84;;;5.86;100.00
18323;BME280;9287;49.456;11.064;2023-11-19T03:07:42;98000.63;;;5.88;100.00
18323;BME280;9287;49.456;11.064;2023-11-19T03:10:13;98014.34;;;5.83;100.00
18323;BME280;9287;49.456;11.064;2023-11-19T03:12:41;98005.41;;;5.91;100.00
18323;BME280;9287;49.456;11.064;2023-11-19T03:15:10;98008.91;;;6.00;100.00
18323;BME280;9287;49.456;11.064;2023-11-19T03:17:40;97995.53;;;5.95;100.00
18323;BME280;9287;49.456;11.064;2023-11-19T03:20:10;98000.63;;;6.05;100.00
18323;BME280;9287;49.456;11.064;2023-11-19T03:22:41;97983.41;;;6.01;100.00
18323;BME280;9287;49.456;11.064;2023-11-19T03:25:10;97974.59;;;6.13;100.00
18323;BME280;9287;49.456;11.064;2023-11-19T03:27:40;97976.34;;;6.09;100.00
18323;BME280;9287;49.456;11.064;2023-11-19T03:30:09;97969.66;;;6.06;100.00
18323;BME280;9287;49.456;11.064;2023-11-19T03:32:38;97966.94;;;6.06;100.00
18323;BME280;9287;49.456;11.064;2023-11-19T03:35:09;97975.28;;;6.01;100.00
18323;BME280;9287;49.456;11.064;2023-11-19T03:37:38;97955.50;;;6.01;100.00
18323;BME280;9287;49.456;11.064;2023-11-19T03:40:07;97930.31;;;6.00;100.00
18323;BME280;9287;49.456;11.064;2023-11-19T03:42:39;97923.25;;;6.08;100.00
18323;BME280;9287;49.456;11.064;2023-11-19T03:45:09;97907.66;;;6.05;100.00
18323;BME280;9287;49.456;11.064;2023-11-19T03:47:38;97896.03;;;6.04;100.00
18323;BME280;9287;49.456;11.064;2023-11-19T03:50:08;97873.88;;;6.02;100.00
18323;BME280;9287;49.456;11.064;2023-11-19T03:52:36;97843.09;;;5.98;100.00
18323;BME280;9287;49.456;11.064;2023-11-19T03:55:07;97830.69;;;5.97;100.00
18323;BME280;9287;49.456;11.064;2023-11-19T03:57:36;97849.19;;;5.95;100.00
18323;BME280;9287;49.456;11.064;2023-11-19T04:00:05;97858.56;;;5.98;100.00
18323;BME280;9287;49.456;11.064;2023-11-19T04:02:36;97861.59;;;5.96;100.00
18323;BME280;9287;49.456;11.064;2023-11-19T04:05:05;97872.13;;;5.98;100.00
18323;BME280;9287;49.456;11.064;2023-11-19T04:07:34;97885.00;;;6.09;100.00
18323;BME280;9287;49.456;11.064;2023-11-19T04:10:03;97896.88;;;6.25;100.00
18323;BME280;9287;49.456;11.064;2023-11-19T04:12:31;97877.44;;;6.23;100.00
18323;BME280;9287;49.456;11.064;2023-11-19T04:14:58;97895.97;;;6.21;100.00
18323;BME280;9287;49.456;11.064;2023-11-19T04:17:27;97898.66;;;6.21;100.00
18323;BME280;9287;49.456;11.064;2023-11-19T04:19:55;97910.44;;;6.25;100.00
18323;BME280;9287;49.456;11.064;2023-11-19T04:22:23;97909.13;;;6.32;100.00
18323;BME280;9287;49.456;11.064;2023-11-19T04:24:53;97904.00;;;6.39;100.00
18323;BME280;9287;49.456;11.064;2023-11-19T04:27:21;97909.63;;;6.34;100.00
18323;BME280;9287;49.456;11.064;2023-11-19T04:29:49;97915.50;;;6.36;100.00
18323;BME280;9287;49.456;11.064;2023-11-19T04:32:20;97906.06;;;6.42;100.00
18323;BME280;9287;49.456;11.064;2023-11-19T04:34:48;97902.50;;;6.50;100.00
18323;BME280;9287;49.456;11.064;2023-11-19T04:37:16;97906.34;;;6.49;100.00
18323;BME280;9287;49.456;11.064;2023-11-19T04:39:44;97901.41;;;6.51;100.00
18323;BME280;9287;49.456;11.064;2023-11-19T04:42:14;97901.41;;;6.51;100.00
18323;BME280;9287;49.456;11.064;2023-11-19T04:44:43;97914.97;;;6.51;100.00
18323;BME280;9287;49.456;11.064;2023-11-19T04:47:11;97902.81;;;6.57;100.00
18323;BME280;9287;49.456;11.064;2023-11-19T04:49:40;97905.13;;;6.67;100.00
18323;BME280;9287;49.456;11.064;2023-11-19T04:52:10;97904.00;;;6.68;100.00
18323;BME280;9287;49.456;11.064;2023-11-19T04:54:41;97893.16;;;6.68;100.00
18323;BME280;9287;49.456;11.064;2023-11-19T04:57:11;97899.69;;;6.67;100.00
18323;BME280;9287;49.456;11.064;2023-11-19T04:59:41;97901.47;;;6.63;100.00
18323;BME280;9287;49.456;11.064;2023-11-19T05:02:09;97904.00;;;6.68;100.00
18323;BME280;9287;49.456;11.064;2023-11-19T05:04:41;97900.81;;;6.66;100.00
18323;BME280;9287;49.456;11.064;2023-11-19T05:07:10;97890.13;;;6.70;100.00
18323;BME280;9287;49.456;11.064;2023-11-19T05:09:38;97897.53;;;6.81;100.00
18323;BME280;9287;49.456;11.064;2023-11-19T05:12:06;97889.84;;;6.83;100.00
18323;BME280;9287;49.456;11.064;2023-11-19T05:14:38;97894.63;;;6.86;100.00
18323;BME280;9287;49.456;11.064;2023-11-19T05:17:07;97899.78;;;6.79;100.00
18323;BME280;9287;49.456;11.064;2023-11-19T05:19:35;97887.63;;;6.85;100.00
18323;BME280;9287;49.456;11.064;2023-11-19T05:22:03;97887.63;;;6.85;100.00
18323;BME280;9287;49.456;11.064;2023-11-19T05:24:33;97890.78;;;6.87;100.00
18323;BME280;9287;49.456;11.064;2023-11-19T05:27:02;97889.47;;;6.93;100.00
18323;BME280;9287;49.456;11.064;2023-11-19T05:29:30;97881.13;;;6.98;100.00
18323;BME280;9287;49.456;11.064;2023-11-19T05:31:58;97868.44;;;6.90;100.00
18323;BME280;9287;49.456;11.064;2023-11-19T05:34:27;97876.44;;;7.08;100.00
18323;BME280;9287;49.456;11.064;2023-11-19T05:36:55;97877.91;;;7.05;100.00
18323;BME280;9287;49.456;11.064;2023-11-19T05:39:23;97870.72;;;7.01;100.00
18323;BME280;9287;49.456;11.064;2023-11-19T05:41:53;97868.28;;;7.08;100.00
18323;BME280;9287;49.456;11.064;2023-11-19T05:44:21;97861.28;;;7.07;100.00
18323;BME280;9287;49.456;11.064;2023-11-19T05:46:48;97864.31;;;7.05;100.00
18323;BME280;9287;49.456;11.064;2023-11-19T05:49:16;97871.72;;;7.17;100.00
18323;BME280;9287;49.456;11.064;2023-11-19T05:51:46;97863.25;;;7.18;100.00
18323;BME280;9287;49.456;11.064;2023-11-19T05:54:13;97859.94;;;7.13;100.00
18323;BME280;9287;49.456;11.064;2023-11-19T05:56:41;97859.94;;;7.13;100.00
18323;BME280;9287;49.456;11.064;2023-11-19T05:59:09;97856.56;;;7.16;100.00
18323;BME280;9287;49.456;11.064;2023-11-19T06:01:42;97858.88;;;7.26;100.00
18323;BME280;9287;49.456;11.064;2023-11-19T06:04:10;97863.38;;;7.22;100.00
18323;BME280;9287;49.456;11.064;2023-11-19T06:06:38;97865.22;;;7.30;100.00
18323;BME280;9287;49.456;11.064;2023-11-19T06:09:08;97869.84;;;7.29;100.00
18323;BME280;9287;49.456;11.064;2023-11-19T06:11:40;97870.16;;;7.49;100.00
18323;BME280;9287;49.456;11.064;2023-11-19T06:14:08;97872.63;;;7.42;100.00
18323;BME280;9287;49.456;11.064;2023-11-19T06:16:35;97871.84;;;7.41;100.00
18323;BME280;9287;49.456;11.064;2023-11-19T06:19:06;97874.31;;;7.46;100.00
18323;BME280;9287;49.456;11.064;2023-11-19T06:21:36;97872.06;;;7.48;100.00
18323;BME280;9287;49.456;11.064;2023-11-19T06:24:05;97881.59;;;7.54;100.00
18323;BME280;9287;49.456;11.064;2023-11-19T06:26:35;97872.31;;;7.55;100.00
18323;BME280;9287;49.456;11.064;2023-11-19T06:29:05;97866.69;;;7.60;100.00
18323;BME280;9287;49.456;11.064;2023-11-19T06:31:34;97870.56;;;7.72;100.00
18323;BME280;9287;49.456;11.064;2023-11-19T06:34:04;97873.75;;;7.74;100.00
18323;BME280;9287;49.456;11.064;2023-11-19T06:36:33;97881.91;;;7.74;100.00
18323;BME280;9287;49.456;11.064;2023-11-19T06:39:01;97880.09;;;7.78;100.00
18323;BME280;9287;49.456;11.064;2023-11-19T06:41:30;97871.03;;;7.86;100.00
18323;BME280;9287;49.456;11.064;2023-11-19T06:43:59;97879.66;;;7.88;100.00
18323;BME280;9287;49.456;11.064;2023-11-19T06:46:27;97882.16;;;7.93;100.00
18323;BME280;9287;49.456;11.064;2023-11-19T06:48:55;97879.72;;;8.12;100.00
18323;BME280;9287;49.456;11.064;2023-11-19T06:51:23;97877.53;;;8.18;100.00
18323;BME280;9287;49.456;11.064;2023-11-19T06:53:51;97876.53;;;8.22;100.00
18323;BME280;9287;49.456;11.064;2023-11-19T06:56:20;97879.47;;;8.17;100.00
18323;BME280;9287;49.456;11.064;2023-11-19T06:58:49;97867.81;;;8.29;100.00
18323;BME280;9287;49.456;11.064;2023-11-19T07:01:18;97882.22;;;8.29;100.00
18323;BME280;9287;49.456;11.064;2023-11-19T07:03:48;97889.69;;;8.32;100.00
18323;BME280;9287;49.456;11.064;2023-11-19T07:06:16;97891.06;;;8.51;100.00
18323;BME280;9287;49.456;11.064;2023-11-19T07:08:44;97885.41;;;8.44;100.00
18323;BME280;9287;49.456;11.064;2023-11-19T07:11:13;97879.50;;;8.54;100.00
18323;BME280;9287;49.456;11.064;2023-11-19T07:13:43;97879.31;;;8.47;100.00
18323;BME280;9287;49.456;11.064;2023-11-19T07:16:14;97873.94;;;8.50;100.00
18323;BME280;9287;49.456;11.064;2023-11-19T07:18:43;97880.72;;;8.68;100.00
18323;BME280;9287;49.456;11.064;2023-11-19T07:21:11;97880.66;;;8.65;100.00
18323;BME280;9287;49.456;11.064;2023-11-19T07:23:39;97887.88;;;8.73;100.00
18323;BME280;9287;49.456;11.064;2023-11-19T07:26:08;97877.91;;;8.77;100.00
18323;BME280;9287;49.456;11.064;2023-11-19T07:28:36;97889.69;;;8.81;100.00
18323;BME280;9287;49.456;11.064;2023-11-19T07:31:05;97894.25;;;8.77;100.00
18323;BME280;9287;49.456;11.064;2023-11-19T07:33:34;97897.63;;;8.86;100.00
18323;BME280;9287;49.456;11.064;2023-11-19T07:36:04;97901.00;;;8.83;100.00
18323;BME280;9287;49.456;11.064;2023-11-19T07:38:32;97901.94;;;8.87;100.00
18323;BME280;9287;49.456;11.064;2023-11-19T07:41:00;97896.03;;;8.85;100.00
18323;BME280;9287;49.456;11.064;2023-11-19T07:43:28;97899.00;;;8.80;100.00
18323;BME280;9287;49.456;11.064;2023-11-19T07:45:56;97900.09;;;8.91;100.00
18323;BME280;9287;49.456;11.064;2023-11-19T07:48:25;97896.47;;;8.99;100.00
18323;BME280;9287;49.456;11.064;2023-11-19T07:50:53;97891.72;;;8.96;100.00
18323;BME280;9287;49.456;11.064;2023-11-19T07:53:22;97888.03;;;9.04;100.00
18323;BME280;9287;49.456;11.064;2023-11-19T07:55:50;97891.44;;;9.14;100.00
18323;BME280;9287;49.456;11.064;2023-11-19T07:58:18;97894.63;;;9.16;100.00
18323;BME280;9287;49.456;11.064;2023-11-19T08:00:46;97908.88;;;9.25;100.00
18323;BME280;9287;49.456;11.064;2023-11-19T08:03:14;97905.03;;;9.26;100.00
18323;BME280;9287;49.456;11.064;2023-11-19T08:05:42;97902.75;;;9.28;100.00
18323;BME280;9287;49.456;11.064;2023-11-19T08:08:11;97908.31;;;9.59;100.00
18323;BME280;9287;49.456;11.064;2023-11-19T08:10:41;97896.91;;;9.69;100.00
18323;BME280;9287;49.456;11.064;2023-11-19T08:13:10;97897.09;;;9.76;100.00
18323;BME280;9287;49.456;11.064;2023-11-19T08:15:37;97902.91;;;9.91;100.00
18323;BME280;9287;49.456;11.064;2023-11-19T08:18:05;97883.56;;;9.96;100.00
18323;BME280;9287;49.456;11.064;2023-11-19T08:20:33;97893.59;;;9.92;100.00
18323;BME280;9287;49.456;11.064;2023-11-19T08:23:02;97889.94;;;10.00;100.00
18323;BME280;9287;49.456;11.064;2023-11-19T08:25:30;97886.50;;;10.03;100.00
18323;BME280;9287;49.456;11.064;2023-11-19T08:28:01;97876.00;;;10.05;100.00
18323;BME280;9287;49.456;11.064;2023-11-19T08:30:30;97876.63;;;9.98;100.00
18323;BME280;9287;49.456;11.064;2023-11-19T08:32:58;97876.72;;;10.02;100.00
18323;BME280;9287;49.456;11.064;2023-11-19T08:35:29;97881.75;;;10.16;100.00
18323;BME280;9287;49.456;11.064;2023-11-19T08:37:57;97875.50;;;10.15;100.00
18323;BME280;9287;49.456;11.064;2023-11-19T08:40:25;97880.25;;;10.18;100.00
18323;BME280;9287;49.456;11.064;2023-11-19T08:42:53;97880.44;;;10.25;100.00
18323;BME280;9287;49.456;11.064;2023-11-19T08:45:25;97878.84;;;10.24;100.00
18323;BME280;9287;49.456;11.064;2023-11-19T08:47:53;97889.25;;;10.34;100.00
18323;BME280;9287;49.456;11.064;2023-11-19T08:50:23;97876.91;;;10.40;100.00
18323;BME280;9287;49.456;11.064;2023-11-19T08:52:50;97883.97;;;10.41;100.00
18323;BME280;9287;49.456;11.064;2023-11-19T08:55:18;97875.25;;;10.52;100.00
18323;BME280;9287;49.456;11.064;2023-11-19T08:57:46;97877.44;;;10.62;100.00
18323;BME280;9287;49.456;11.064;2023-11-19T09:00:14;97876.91;;;10.72;100.00
18323;BME280;9287;49.456;11.064;2023-11-19T09:02:44;97872.03;;;10.81;100.00
18323;BME280;9287;49.456;11.064;2023-11-19T09:05:12;97853.28;;;10.99;100.00
18323;BME280;9287;49.456;11.064;2023-11-19T09:07:40;97853.66;;;11.16;100.00
18323;BME280;9287;49.456;11.064;2023-11-19T09:10:08;97842.84;;;11.62;100.00
18323;BME280;9287;49.456;11.064;2023-11-19T09:12:38;97831.25;;;12.11;100.00
18323;BME280;9287;49.456;11.064;2023-11-19T09:15:06;97820.53;;;12.25;100.00
18323;BME280;9287;49.456;11.064;2023-11-19T09:17:34;97815.34;;;12.20;100.00
18323;BME280;9287;49.456;11.064;2023-11-19T09:20:04;97828.13;;;12.12;100.00
18323;BME280;9287;49.456;11.064;2023-11-19T09:22:32;97815.13;;;12.32;100.00
18323;BME280;9287;49.456;11.064;2023-11-19T09:25:00;97829.16;;;12.80;100.00
18323;BME280;9287;49.456;11.064;2023-11-19T09:27:28;97825.56;;;13.36;100.00
18323;BME280;9287;49.456;11.064;2023-11-19T09:29:56;97827.88;;;13.30;100.00
18323;BME280;9287;49.456;11.064;2023-11-19T09:32:25;97837.81;;;13.42;100.00
18323;BME280;9287;49.456;11.064;2023-11-19T09:34:53;97835.16;;;13.15;100.00
18323;BME280;9287;49.456;11.064;2023-11-19T09:37:22;97843.66;;;13.10;100.00
18323;BME280;9287;49.456;11.064;2023-11-19T09:39:50;97846.66;;;12.98;100.00
18323;BME280;9287;49.456;11.064;2023-11-19T09:42:18;97849.78;;;13.60;100.00
18323;BME280;9287;49.456;11.064;2023-11-19T09:44:47;97847.41;;;13.96;100.00
18323;BME280;9287;49.456;11.064;2023-11-19T09:47:17;97845.44;;;13.26;100.00
18323;BME280;9287;49.456;11.064;2023-11-19T09:49:47;97847.38;;;12.95;100.00
18323;BME280;9287;49.456;11.064;2023-11-19T09:52:16;97848.13;;;12.92;100.00
18323;BME280;9287;49.456;11.064;2023-11-19T09:54:46;97850.50;;;12.94;100.00
18323;BME280;9287;49.456;11.064;2023-11-19T09:57:15;97842.81;;;12.76;100.00
18323;BME280;9287;49.456;11.064;2023-11-19T09:59:45;97840.91;;;12.80;100.00
18323;BME280;9287;49.456;11.064;2023-11-19T10:02:15;97839.78;;;12.85;100.00
18323;BME280;9287;49.456;11.064;2023-11-19T10:04:45;97838.53;;;12.79;100.00
18323;BME280;9287;49.456;11.064;2023-11-19T10:07:14;97832.66;;;12.77;100.00
18323;BME280;9287;49.456;11.064;2023-11-19T10:09:42;97839.09;;;12.65;100.00
18323;BME280;9287;49.456;11.064;2023-11-19T10:12:11;97826.56;;;12.64;100.00
18323;BME280;9287;49.456;11.064;2023-11-19T10:14:40;97828.84;;;12.59;100.00
18323;BME280;9287;49.456;11.064;2023-11-19T10:17:09;97828.16;;;12.65;100.00
18323;BME280;9287;49.456;11.064;2023-11-19T10:19:40;97821.88;;;12.65;100.00
18323;BME280;9287;49.456;11.064;2023-11-19T10:22:12;97825.03;;;12.67;100.00
18323;BME280;9287;49.456;11.064;2023-11-19T10:24:48;97824.13;;;12.55;100.00
18323;BME280;9287;49.456;11.064;2023-11-19T10:27:27;97815.03;;;12.51;100.00
18323;BME280;9287;49.456;11.064;2023-11-19T10:29:59;97833.34;;;12.44;100.00
18323;BME280;9287;49.456;11.064;2023-11-19T10:32:28;97825.06;;;12.40;100.00
18323;BME280;9287;49.456;11.064;2023-11-19T10:35:06;97832.53;;;12.43;100.00
18323;BME280;9287;49.456;11.064;2023-11-19T10:37:36;97825.72;;;12.34;100.00
18323;BME280;9287;49.456;11.064;2023-11-19T10:40:06;97832.19;;;12.22;100.00
18323;BME280;9287;49.456;11.064;2023-11-19T10:42:39;97819.31;;;12.00;100.00
18323;BME280;9287;49.456;11.064;2023-11-19T10:45:21;97841.69;;;11.82;100.00
18323;BME280;9287;49.456;11.064;2023-11-19T10:47:54;97841.59;;;11.79;100.00
18323;BME280;9287;49.456;11.064;2023-11-19T10:50:24;97844.19;;;11.91;100.00
18323;BME280;9287;49.456;11.064;2023-11-19T10:52:58;97833.97;;;12.11;100.00
18323;BME280;9287;49.456;11.064;2023-11-19T10:55:31;97833.69;;;12.42;100.00
18323;BME280;9287;49.456;11.064;2023-11-19T10:58:02;97821.25;;;12.75;100.00
18323;BME280;9287;49.456;11.064;2023-11-19T11:00:38;97814.03;;;12.89;100.00
18323;BME280;9287;49.456;11.064;2023-11-19T11:03:11;97809.28;;;13.16;100.00
18323;BME280;9287;49.456;11.064;2023-11-19T11:05:46;97806.34;;;13.66;100.00
18323;BME280;9287;49.456;11.064;2023-11-19T11:08:16;97819.41;;;13.79;100.00
18323;BME280;9287;49.456;11.064;2023-11-19T11:10:45;97805.78;;;13.53;100.00
18323;BME280;9287;49.456;11.064;2023-11-19T11:13:25;97819.13;;;13.54;100.00
18323;BME280;9287;49.456;11.064;2023-11-19T11:15:57;97799.00;;;13.40;100.00
18323;BME280;9287;49.456;11.064;2023-11-19T11:18:26;97807.75;;;13.15;100.00
18323;BME280;9287;49.456;11.064;2023-11-19T11:20:59;97800.59;;;13.11;100.00
18323;BME280;9287;49.456;11.064;2023-11-19T11:23:42;97796.53;;;13.65;100.00
18323;BME280;9287;49.456;11.064;2023-11-19T11:26:35;97788.69;;;14.11;100.00
18323;BME280;9287;49.456;11.064;2023-11-19T11:29:35;97776.31;;;13.83;100.00
18323;BME280;9287;49.456;11.064;2023-11-19T11:32:14;97780.84;;;13.65;100.00
18323;BME280;9287;49.456;11.064;2023-11-19T11:35:12;97784.63;;;13.50;100.00
18323;BME280;9287;49.456;11.064;2023-11-19T11:37:44;97775.75;;;13.27;100.00
18323;BME280;9287;49.456;11.064;2023-11-19T11:40:15;97795.22;;;13.55;100.00
18323;BME280;9287;49.456;11.064;2023-11-19T11:42:46;97771.91;;;14.19;100.00
18323;BME280;9287;49.456;11.064;2023-11-19T11:45:16;97784.22;;;15.05;100.00
18323;BME280;9287;49.456;11.064;2023-11-19T11:48:18;97777.41;;;16.25;100.00
18323;BME280;9287;49.456;11.064;2023-11-19T11:50:49;97770.25;;;15.60;100.00
18323;BME280;9287;49.456;11.064;2023-11-19T11:53:22;97773.06;;;14.73;100.00
18323;BME280;9287;49.456;11.064;2023-11-19T11:55:54;97767.19;;;14.20;100.00
18323;BME280;9287;49.456;11.064;2023-11-19T11:58:35;97770.06;;;13.86;100.00
18323;BME280;9287;49.456;11.064;2023-11-19T12:01:06;97761.28;;;13.70;100.00
18323;BME280;9287;49.456;11.064;2023-11-19T12:03:38;97764.34;;;13.62;100.00
18323;BME280;9287;49.456;11.064;2023-11-19T12:06:15;97752.19;;;13.59;100.00
18323;BME280;9287;49.456;11.064;2023-11-19T12:08:45;97753.25;;;13.47;100.00
18323;BME280;9287;49.456;11.064;2023-11-19T12:11:16;97750.88;;;13.46;100.00
18323;BME280;9287;49.456;11.064;2023-11-19T12:13:53;97764.19;;;13.44;100.00
18323;BME280;9287;49.456;11.064;2023-11-19T12:16:32;97760.28;;;13.45;100.00
18323;BME280;9287;49.456;11.064;2023-11-19T12:19:15;97744.16;;;13.40;100.00
18323;BME280;9287;49.456;11.064;2023-11-19T12:21:45;97744.16;;;13.40;100.00
18323;BME280;9287;49.456;11.064;2023-11-19T12:24:13;97734.06;;;13.51;100.00
18323;BME280;9287;49.456;11.064;2023-11-19T12:26:44;97737.44;;;14.29;100.00
18323;BME280;9287;49.456;11.064;2023-11-19T12:29:14;97742.47;;;14.82;100.00
18323;BME280;9287;49.456;11.064;2023-11-19T12:31:53;97731.97;;;15.05;100.00
18323;BME280;9287;49.456;11.064;2023-11-19T12:34:21;97741.19;;;15.80;100.00
18323;BME280;9287;49.456;11.064;2023-11-19T12:36:51;97734.78;;;15.19;100.00
18323;BME280;9287;49.456;11.064;2023-11-19T12:39:20;97741.09;;;15.23;100.00
18323;BME280;9287;49.456;11.064;2023-11-19T12:41:52;97740.34;;;15.48;100.00
18323;BME280;9287;49.456;11.064;2023-11-19T12:44:22;97719.47;;;16.50;100.00
18323;BME280;9287;49.456;11.064;2023-11-19T12:47:02;97704.19;;;16.13;100.00
18323;BME280;9287;49.456;11.064;2023-11-19T12:49:30;97729.31;;;16.58;100.00
18323;BME280;9287;49.456;11.064;2023-11-19T12:51:58;97738.72;;;16.82;100.00
18323;BME280;9287;49.456;11.064;2023-11-19T12:54:35;97737.25;;;16.24;100.00
18323;BME280;9287;49.456;11.064;2023-11-19T12:57:04;97740.28;;;15.26;100.00
18323;BME280;9287;49.456;11.064;2023-11-19T12:59:35;97732.78;;;15.06;100.00
18323;BME280;9287;49.456;11.064;2023-11-19T13:02:05;97735.56;;;15.30;100.00
18323;BME280;9287;49.456;11.064;2023-11-19T13:04:34;97722.63;;;15.31;100.00
18323;BME280;9287;49.456;11.064;2023-11-19T13:07:03;97734.03;;;15.37;100.00
18323;BME280;9287;49.456;11.064;2023-11-19T13:09:32;97728.50;;;15.22;100.00
18323;BME280;9287;49.456;11.064;2023-11-19T13:12:12;97722.09;;;14.93;100.00